createdAt,value
2019-05-29T00:01:21.272Z,99245.84
2019-05-29T00:05:22.703Z,99241.53
2019-05-29T00:09:27.071Z,99252.19
2019-05-29T00:13:31.329Z,99253.91
2019-05-29T00:17:35.638Z,99251.69
2019-05-29T00:21:39.959Z,99250.38
2019-05-29T00:25:44.239Z,99251.20
2019-05-29T00:29:48.566Z,99248.16
2019-05-29T00:33:53.014Z,99252.16
2019-05-29T00:37:57.367Z,99254.84
2019-05-29T00:42:03.025Z,99251.78
2019-05-29T00:46:07.402Z,99246.95
2019-05-29T00:50:12.461Z,99244.30
2019-05-29T00:54:16.791Z,99235.46
2019-05-29T00:58:21.120Z,99238.11
2019-05-29T01:02:25.437Z,99243.87
2019-05-29T01:06:29.763Z,99257.11
2019-05-29T01:10:34.087Z,99268.17
2019-05-29T01:14:49.634Z,99275.66
2019-05-29T01:18:44.464Z,99277.87
2019-05-29T01:22:48.766Z,99278.31
2019-05-29T01:26:53.023Z,99282.38
2019-05-29T01:30:57.660Z,99284.64
2019-05-29T01:35:02.029Z,99277.69
2019-05-29T01:39:07.176Z,99277.74
2019-05-29T01:43:11.625Z,99276.97
2019-05-29T01:47:15.995Z,99291.13
2019-05-29T01:51:21.747Z,99304.42
2019-05-29T01:55:26.102Z,99305.70
2019-05-29T01:59:30.434Z,99305.75
2019-05-29T02:03:34.884Z,99309.29
2019-05-29T02:07:39.250Z,99309.29
2019-05-29T02:11:43.576Z,99303.16
2019-05-29T02:15:47.854Z,99303.67
2019-05-29T02:19:52.199Z,99319.59
2019-05-29T02:23:56.532Z,99320.45
2019-05-29T02:28:00.863Z,99318.26
2019-05-29T02:32:05.214Z,99335.09
2019-05-29T02:36:09.533Z,99337.25
2019-05-29T02:40:14.120Z,99335.06
2019-05-29T02:44:19.219Z,99332.01
2019-05-29T02:48:25.060Z,99337.77
2019-05-29T02:52:30.730Z,99335.14
2019-05-29T02:56:35.228Z,99336.93
2019-05-29T03:00:54.381Z,99353.68
2019-05-29T03:04:58.715Z,99356.79
2019-05-29T03:09:05.021Z,99360.73
2019-05-29T03:13:09.300Z,99361.16
2019-05-29T03:17:13.647Z,99369.54
2019-05-29T03:21:18.074Z,99374.34
2019-05-29T03:25:22.422Z,99376.97
2019-05-29T03:29:28.164Z,99386.70
2019-05-29T03:33:41.035Z,99392.87
2019-05-29T03:37:39.048Z,99398.56
2019-05-29T03:41:43.319Z,99403.84
2019-05-29T03:45:47.720Z,99396.79
2019-05-29T03:49:52.053Z,99411.78
2019-05-29T03:53:56.420Z,99416.23
2019-05-29T03:58:00.782Z,99419.32
2019-05-29T04:02:05.120Z,99423.78
2019-05-29T04:06:09.553Z,99425.95
2019-05-29T04:10:14.115Z,99430.80
2019-05-29T04:14:18.439Z,99440.56
2019-05-29T04:18:25.158Z,99433.55
2019-05-29T04:22:36.938Z,99438.89
2019-05-29T04:26:41.625Z,99443.34
2019-05-29T04:30:45.968Z,99454.48
2019-05-29T04:34:50.468Z,99455.83
2019-05-29T04:38:54.834Z,99473.52
2019-05-29T04:42:59.135Z,99478.33
2019-05-29T04:47:10.948Z,99483.66
2019-05-29T04:51:09.941Z,99493.80
2019-05-29T04:55:14.343Z,99496.96
2019-05-29T04:59:18.643Z,99508.05
2019-05-29T05:03:23.016Z,99510.83
2019-05-29T05:07:27.317Z,99518.82
2019-05-29T05:11:31.600Z,99516.66
2019-05-29T05:15:36.417Z,99527.72
2019-05-29T05:19:40.719Z,99530.84
2019-05-29T05:23:45.284Z,99533.52
2019-05-29T05:27:49.570Z,99544.58
2019-05-29T05:31:54.997Z,99543.33
2019-05-29T05:35:59.302Z,99552.17
2019-05-29T05:40:03.649Z,99556.14
2019-05-29T05:44:07.931Z,99560.05
2019-05-29T05:48:12.283Z,99566.66
2019-05-29T06:13:02.873Z,99595.65
2019-05-29T06:17:07.314Z,99597.07
2019-05-29T06:21:11.721Z,99605.02
2019-05-29T06:25:16.742Z,99604.59
2019-05-29T06:29:21.058Z,99600.13
2019-05-29T06:33:25.424Z,99606.24
2019-05-29T06:37:30.071Z,99615.89
2019-05-29T06:41:35.584Z,99619.36
2019-05-29T06:45:40.200Z,99624.61
2019-05-29T06:49:46.238Z,99626.34
2019-05-29T06:53:50.687Z,99636.04
2019-05-29T06:57:56.490Z,99636.04
2019-05-29T07:02:00.852Z,99647.48
2019-05-29T07:06:05.199Z,99647.03
2019-05-29T07:10:09.503Z,99659.84
2019-05-29T07:14:13.867Z,99647.44
2019-05-29T07:18:18.178Z,99653.59
2019-05-29T07:22:22.513Z,99657.56
2019-05-29T07:26:26.894Z,99668.62
2019-05-29T07:30:31.904Z,99669.48
2019-05-29T07:34:52.613Z,99668.59
2019-05-29T07:38:46.108Z,99678.75
2019-05-29T07:42:55.853Z,99679.70
2019-05-29T07:46:54.767Z,99685.00
2019-05-29T07:51:07.080Z,99683.67
2019-05-29T07:55:05.573Z,99685.43
2019-05-29T07:59:09.919Z,99693.32
2019-05-29T08:03:14.294Z,99697.73
2019-05-29T08:07:18.647Z,99706.53
2019-05-29T08:11:23.045Z,99707.84
2019-05-29T08:15:27.350Z,99709.17
2019-05-29T08:19:32.060Z,99720.69
2019-05-29T08:23:36.373Z,99721.58
2019-05-29T08:27:40.758Z,99729.50
2019-05-29T08:31:45.108Z,99724.67
2019-05-29T08:35:57.919Z,99736.18
2019-05-29T08:39:55.872Z,99742.34
2019-05-29T08:44:00.460Z,99745.00
2019-05-29T08:48:04.847Z,99752.04
2019-05-29T08:52:12.325Z,99752.92
2019-05-29T08:56:15.486Z,99744.98
2019-05-29T09:00:20.134Z,99763.48
2019-05-29T09:04:24.438Z,99759.91
2019-05-29T09:08:28.864Z,99758.58
2019-05-29T09:12:33.125Z,99763.38
2019-05-29T09:16:37.530Z,99770.85
2019-05-29T09:21:00.694Z,99773.47
2019-05-29T09:24:47.945Z,99774.79
2019-05-29T09:28:52.286Z,99770.81
2019-05-29T09:32:56.686Z,99784.06
2019-05-29T09:37:00.962Z,99784.08
2019-05-29T09:41:05.320Z,99796.40
2019-05-29T09:45:09.696Z,99796.80
2019-05-29T09:49:14.120Z,99798.11
2019-05-29T09:53:18.647Z,99804.68
2019-05-29T09:57:22.986Z,99806.02
2019-05-29T10:01:27.495Z,99810.41
2019-05-29T10:05:32.008Z,99807.76
2019-05-29T10:09:36.463Z,99818.33
2019-05-29T10:13:41.150Z,99814.35
2019-05-29T10:17:45.519Z,99809.02
2019-05-29T10:21:49.951Z,99816.95
2019-05-29T10:25:56.411Z,99809.03
2019-05-29T10:30:00.880Z,99814.74
2019-05-29T10:34:05.195Z,99817.36
2019-05-29T10:38:09.505Z,99820.84
2019-05-29T10:42:13.912Z,99823.92
2019-05-29T10:46:18.210Z,99823.91
2019-05-29T10:50:22.580Z,99826.14
2019-05-29T10:54:26.902Z,99823.06
2019-05-29T10:58:47.643Z,99832.26
2019-05-29T11:02:37.352Z,99832.70
2019-05-29T11:06:41.756Z,99834.92
2019-05-29T11:10:46.089Z,99841.53
2019-05-29T11:14:50.789Z,99839.30
2019-05-29T11:18:55.397Z,99841.02
2019-05-29T11:22:59.680Z,99846.28
2019-05-29T11:27:04.066Z,99837.44
2019-05-29T11:31:08.426Z,99841.84
2019-05-29T11:35:12.856Z,99843.63
2019-05-29T11:39:17.191Z,99845.38
2019-05-29T11:43:21.608Z,99841.81
2019-05-29T11:47:25.904Z,99836.43
2019-05-29T11:51:30.206Z,99844.80
2019-05-29T11:55:34.530Z,99837.29
2019-05-29T11:59:38.914Z,99842.56
2019-05-29T12:04:09.089Z,99839.45
2019-05-29T12:07:49.284Z,99837.70
2019-05-29T12:11:54.036Z,99846.02
2019-05-29T12:15:59.672Z,99840.64
2019-05-29T12:20:23.998Z,99845.89
2019-05-29T12:24:10.401Z,99846.73
2019-05-29T12:28:14.862Z,99850.71
2019-05-29T12:32:19.287Z,99842.35
2019-05-29T12:36:23.659Z,99849.02
2019-05-29T12:40:28.052Z,99846.36
2019-05-29T12:44:32.359Z,99843.69
2019-05-29T12:48:36.646Z,99847.27
2019-05-29T12:52:41.161Z,99846.41
2019-05-29T12:56:45.486Z,99847.73
2019-05-29T13:00:50.002Z,99847.71
2019-05-29T13:05:18.349Z,99851.21
2019-05-29T13:09:00.587Z,99849.02
2019-05-29T13:13:10.650Z,99860.00
2019-05-29T13:17:10.864Z,99859.10
2019-05-29T13:21:15.218Z,99857.27
2019-05-29T13:25:19.554Z,99852.80
2019-05-29T13:29:23.860Z,99854.48
2019-05-29T13:33:28.202Z,99852.23
2019-05-29T13:37:33.538Z,99851.28
2019-05-29T13:41:37.871Z,99855.98
2019-05-29T13:45:42.190Z,99848.83
2019-05-29T13:49:46.579Z,99850.02
2019-05-29T13:54:02.799Z,99856.61
2019-05-29T13:57:57.586Z,99862.73
2019-05-29T14:02:04.736Z,99855.21
2019-05-29T14:06:09.592Z,99856.92
2019-05-29T14:10:14.189Z,99868.40
2019-05-29T14:14:18.617Z,99869.31
2019-05-29T14:18:22.970Z,99878.13
2019-05-29T14:22:27.299Z,99887.83
2019-05-29T14:26:31.722Z,99889.58
2019-05-29T14:30:36.111Z,99890.89
2019-05-29T14:34:40.396Z,99897.02
2019-05-29T14:38:44.810Z,99898.81
2019-05-29T14:42:49.233Z,99894.37
2019-05-29T14:46:53.768Z,99900.52
2019-05-29T14:50:58.389Z,99895.23
2019-05-29T14:55:03.033Z,99903.63
2019-05-29T14:59:07.527Z,99900.52
2019-05-29T15:03:13.647Z,99898.75
2019-05-29T15:07:18.309Z,99900.47
2019-05-29T15:11:22.711Z,99907.58
2019-05-29T15:15:27.174Z,99907.12
2019-05-29T15:19:43.189Z,99923.95
2019-05-29T15:23:47.529Z,99921.30
2019-05-29T15:27:51.911Z,99932.80
2019-05-29T15:31:56.314Z,99931.48
2019-05-29T15:36:00.686Z,99931.98
2019-05-29T15:40:06.597Z,99945.23
2019-05-29T15:44:11.015Z,99945.73
2019-05-29T15:48:15.381Z,99950.17
2019-05-29T15:52:20.009Z,99941.77
2019-05-29T15:56:28.011Z,99940.45
2019-05-29T16:00:30.467Z,99941.30
2019-05-29T16:04:34.955Z,99945.23
2019-05-29T16:08:39.313Z,99947.45
2019-05-29T16:12:43.631Z,99959.39
2019-05-29T16:16:47.968Z,99955.88
2019-05-29T16:20:52.358Z,99968.75
2019-05-29T16:24:56.684Z,99968.77
2019-05-29T16:29:01.026Z,99972.75
2019-05-29T16:33:05.736Z,99974.07
2019-05-29T16:37:11.231Z,99980.26
2019-05-29T16:41:15.842Z,99984.68
2019-05-29T16:45:22.408Z,99987.33
2019-05-29T16:49:26.805Z,99993.50
2019-05-29T16:53:35.025Z,99989.12
2019-05-29T16:57:46.508Z,100002.33
2019-05-29T17:01:50.806Z,99999.67
2019-05-29T17:05:55.259Z,99998.31
2019-05-29T17:10:00.144Z,99994.34
2019-05-29T17:14:04.613Z,100004.47
2019-05-29T17:18:09.085Z,100004.95
2019-05-29T17:22:14.516Z,100008.52
2019-05-29T17:26:18.987Z,100012.50
2019-05-29T17:30:30.344Z,100011.20
2019-05-29T17:34:34.690Z,100015.20
2019-05-29T17:38:39.103Z,100017.00
2019-05-29T17:42:43.881Z,100027.17
2019-05-29T17:46:51.232Z,100019.27
2019-05-29T17:50:55.618Z,100035.69
2019-05-29T17:55:00.049Z,100041.39
2019-05-29T17:59:04.995Z,100046.73
2019-05-29T18:03:09.432Z,100044.98
2019-05-29T18:07:13.698Z,100052.94
2019-05-29T18:11:18.839Z,100052.52
2019-05-29T18:15:23.767Z,100062.70
2019-05-29T18:19:28.372Z,100068.43
2019-05-29T18:23:32.820Z,100072.41
2019-05-29T18:27:37.349Z,100075.06
2019-05-29T18:31:41.642Z,100075.53
2019-05-29T18:35:46.100Z,100078.65
2019-05-29T18:39:50.523Z,100086.20
2019-05-29T18:43:54.861Z,100087.95
2019-05-29T18:47:59.265Z,100098.14
2019-05-29T18:52:03.594Z,100097.23
2019-05-29T18:56:07.969Z,100102.60
2019-05-29T19:00:15.345Z,100112.76
2019-05-29T19:04:19.716Z,100130.41
2019-05-29T19:08:24.281Z,100130.84
2019-05-29T19:12:30.367Z,100136.21
2019-05-29T19:16:34.702Z,100138.87
2019-05-29T19:20:39.070Z,100145.05
2019-05-29T19:24:43.468Z,100156.98
2019-05-29T19:28:49.022Z,100167.16
2019-05-29T19:32:53.805Z,100175.97
2019-05-29T19:36:58.099Z,100171.55
2019-05-29T19:41:02.478Z,100183.94
2019-05-29T19:45:07.848Z,100176.01
2019-05-29T19:49:12.231Z,100176.92
2019-05-29T19:53:16.675Z,100189.73
2019-05-29T19:57:21.030Z,100187.99
2019-05-29T20:01:31.667Z,100186.68
2019-05-29T20:05:32.738Z,100189.75
2019-05-29T20:09:37.653Z,100197.30
2019-05-29T20:13:42.529Z,100202.19
2019-05-29T20:17:46.895Z,100209.24
2019-05-29T20:21:51.255Z,100208.83
2019-05-29T20:25:55.574Z,100208.84
2019-05-29T20:29:59.903Z,100213.28
2019-05-29T20:34:04.322Z,100216.39
2019-05-29T20:38:08.765Z,100215.52
2019-05-29T20:42:13.125Z,100215.53
2019-05-29T20:46:17.455Z,100222.57
2019-05-29T20:50:21.921Z,100226.55
2019-05-29T20:54:26.251Z,100228.78
2019-05-29T20:58:31.620Z,100238.51
2019-05-29T21:02:36.204Z,100243.36
2019-05-29T21:06:40.759Z,100246.01
2019-05-29T21:10:45.346Z,100251.73
2019-05-29T21:14:49.808Z,100246.89
2019-05-29T21:18:54.305Z,100244.25
2019-05-29T21:22:59.843Z,100250.87
2019-05-29T21:27:04.143Z,100250.87
2019-05-29T21:31:08.475Z,100258.40
2019-05-29T21:35:12.909Z,100260.59
2019-05-29T21:39:17.210Z,100261.92
2019-05-29T21:43:21.549Z,100270.33
2019-05-29T21:47:25.921Z,100263.71
2019-05-29T21:51:30.321Z,100260.20
2019-05-29T21:55:34.661Z,100263.76
2019-05-29T21:59:39.670Z,100257.59
2019-05-29T22:03:44.468Z,100269.55
2019-05-29T22:07:49.023Z,100275.26
2019-05-29T22:11:54.304Z,100282.36
2019-05-29T22:15:58.890Z,100283.23
2019-05-29T22:20:03.325Z,100287.20
2019-05-29T22:24:07.671Z,100293.84
2019-05-29T22:28:12.053Z,100287.68
2019-05-29T22:32:16.432Z,100285.90
2019-05-29T22:36:20.771Z,100295.61
2019-05-29T22:40:25.610Z,100300.02
2019-05-29T22:44:29.976Z,100302.23
2019-05-29T22:48:34.365Z,100298.28
2019-05-29T22:52:38.776Z,100303.11
2019-05-29T22:56:43.102Z,100307.53
2019-05-29T23:00:47.421Z,100300.91
2019-05-29T23:04:52.149Z,100303.12
2019-05-29T23:08:56.627Z,100298.27
2019-05-29T23:13:03.950Z,100302.23
2019-05-29T23:17:06.976Z,100302.22
2019-05-29T23:21:11.347Z,100299.14
2019-05-29T23:25:15.702Z,100296.06
2019-05-29T23:29:20.143Z,100300.02
2019-05-29T23:33:24.492Z,100304.83
2019-05-29T23:37:28.849Z,100314.07
2019-05-29T23:41:33.170Z,100307.47
2019-05-29T23:45:37.503Z,100309.66
2019-05-29T23:49:41.989Z,100311.44
2019-05-29T23:53:46.470Z,100312.77
2019-05-29T23:57:50.805Z,100310.59
